Aviation Digital Data Service (ADDS)

Output produced by TAFs form (1214 UTC 24 February 2018)
found at http://aviationweather.gov/adds/tafs/
 
METAR text: EDDF 241150Z 04020KT CAVOK 04/M10 Q1022 R88/0///95 NOSIG
Conditions at: EDDF (FRANKFURT MAIN A, DE) observed 1150 UTC 24 February 2018
Temperature: 4.0°C (39°F)
Dewpoint: -10.0°C (14°F) [RH = 35%]
Pressure (altimeter): 30.18 inches Hg (1022.0 mb)
Winds: from the NE (40 degrees) at 23 MPH (20 knots; 10.4 m/s)
Visibility: 6 or more miles (10+ km)
Ceiling: ceiling and visibility are OK
Clouds: unknown
Weather: no significant weather observed at this time

Forecast for: EDDF (FRANKFURT MAIN A, DE)
Text: TAF EDDF 241100Z 2412/2518 04015G25KT CAVOK
Forecast period: 1200 UTC 24 February 2018 to 1800 UTC 25 February 2018
Forecast type: FROM: standard forecast or significant change
Winds: from the NE (40 degrees) at 17 MPH (15 knots; 7.8 m/s)
gusting to 29 MPH (25 knots; 13.0 m/s)
Visibility: 6 or more miles (10+ km)
Clouds: not forecast
Weather: NSW  (no significant weather)
Text: TEMPO 2420/2508 04012KT
Forecast period: 2000 UTC 24 February 2018 to 0800 UTC 25 February 2018
Forecast type: TEMPORARY: The following changes expected for less than half the time period
Winds: from the NE (40 degrees) at 14 MPH (12 knots; 6.2 m/s)
Weather: no significant weather forecast for this period